sensor_id;sensor_type;location;lat;lon;timestamp;pressure;altitude;pressure_sealevel;temperature;humidity
10718;BME280;13513;42.700;23.124;2023-08-30T00:00:40;92118.19;;;18.88;100.00
10718;BME280;13513;42.700;23.124;2023-08-30T00:03:07;92111.45;;;18.91;100.00
10718;BME280;13513;42.700;23.124;2023-08-30T00:05:38;92111.34;;;18.76;100.00
10718;BME280;13513;42.700;23.124;2023-08-30T00:08:06;92116.86;;;18.46;100.00
10718;BME280;13513;42.700;23.124;2023-08-30T00:10:34;92109.02;;;18.30;100.00
10718;BME280;13513;42.700;23.124;2023-08-30T00:13:01;92103.00;;;18.35;100.00
10718;BME280;13513;42.700;23.124;2023-08-30T00:15:29;92098.84;;;18.21;100.00
10718;BME280;13513;42.700;23.124;2023-08-30T00:17:56;92095.39;;;18.20;100.00
10718;BME280;13513;42.700;23.124;2023-08-30T00:20:24;92094.42;;;18.08;100.00
10718;BME280;13513;42.700;23.124;2023-08-30T00:22:51;92102.10;;;18.01;100.00
10718;BME280;13513;42.700;23.124;2023-08-30T00:25:19;92096.52;;;18.00;100.00
10718;BME280;13513;42.700;23.124;2023-08-30T00:27:46;92092.02;;;17.98;100.00
10718;BME280;13513;42.700;23.124;2023-08-30T00:30:13;92097.63;;;17.99;100.00
10718;BME280;13513;42.700;23.124;2023-08-30T00:32:41;92103.56;;;17.87;100.00
10718;BME280;13513;42.700;23.124;2023-08-30T00:35:09;92100.27;;;17.90;100.00
10718;BME280;13513;42.700;23.124;2023-08-30T00:37:36;92098.55;;;17.94;100.00
10718;BME280;13513;42.700;23.124;2023-08-30T00:40:04;92092.28;;;17.99;100.00
10718;BME280;13513;42.700;23.124;2023-08-30T00:42:32;92101.15;;;17.97;100.00
10718;BME280;13513;42.700;23.124;2023-08-30T00:45:00;92106.80;;;17.95;100.00
10718;BME280;13513;42.700;23.124;2023-08-30T00:47:27;92110.81;;;17.95;100.00
10718;BME280;13513;42.700;23.124;2023-08-30T00:49:55;92121.89;;;17.91;100.00
10718;BME280;13513;42.700;23.124;2023-08-30T00:52:22;92127.42;;;18.03;100.00
10718;BME280;13513;42.700;23.124;2023-08-30T00:54:50;92134.59;;;18.05;100.00
10718;BME280;13513;42.700;23.124;2023-08-30T00:57:18;92131.77;;;18.10;100.00
10718;BME280;13513;42.700;23.124;2023-08-30T00:59:45;92133.60;;;18.12;100.00
10718;BME280;13513;42.700;23.124;2023-08-30T01:02:13;92129.90;;;18.11;100.00
10718;BME280;13513;42.700;23.124;2023-08-30T01:04:40;92130.48;;;17.99;100.00
10718;BME280;13513;42.700;23.124;2023-08-30T01:07:08;92130.66;;;18.03;100.00
10718;BME280;13513;42.700;23.124;2023-08-30T01:09:35;92138.42;;;18.02;100.00
10718;BME280;13513;42.700;23.124;2023-08-30T01:12:17;92133.08;;;18.02;100.00
10718;BME280;13513;42.700;23.124;2023-08-30T01:15:09;92130.40;;;17.93;100.00
10718;BME280;13513;42.700;23.124;2023-08-30T01:17:38;92136.86;;;18.01;100.00
10718;BME280;13513;42.700;23.124;2023-08-30T01:20:07;92149.27;;;17.97;100.00
10718;BME280;13513;42.700;23.124;2023-08-30T01:28:05;92139.76;;;18.02;100.00
10718;BME280;13513;42.700;23.124;2023-08-30T01:30:35;92140.70;;;17.97;100.00
10718;BME280;13513;42.700;23.124;2023-08-30T01:33:04;92138.42;;;17.93;100.00
10718;BME280;13513;42.700;23.124;2023-08-30T01:35:35;92142.05;;;17.97;100.00
10718;BME280;13513;42.700;23.124;2023-08-30T01:38:04;92141.59;;;18.04;100.00
10718;BME280;13513;42.700;23.124;2023-08-30T01:40:41;92142.31;;;18.07;100.00
10718;BME280;13513;42.700;23.124;2023-08-30T01:43:06;92143.84;;;17.99;100.00
10718;BME280;13513;42.700;23.124;2023-08-30T01:45:36;92140.33;;;18.01;100.00
10718;BME280;13513;42.700;23.124;2023-08-30T01:48:07;92134.11;;;18.03;100.00
10718;BME280;13513;42.700;23.124;2023-08-30T01:50:35;92133.34;;;18.03;100.00
10718;BME280;13513;42.700;23.124;2023-08-30T01:53:04;92132.77;;;18.03;100.00
10718;BME280;13513;42.700;23.124;2023-08-30T01:55:32;92134.80;;;17.98;100.00
10718;BME280;13513;42.700;23.124;2023-08-30T01:58:00;92138.53;;;18.08;100.00
10718;BME280;13513;42.700;23.124;2023-08-30T02:00:27;92134.86;;;18.15;100.00
10718;BME280;13513;42.700;23.124;2023-08-30T02:02:55;92137.92;;;18.11;100.00
10718;BME280;13513;42.700;23.124;2023-08-30T02:05:23;92137.58;;;18.04;100.00
10718;BME280;13513;42.700;23.124;2023-08-30T02:08:15;92128.71;;;18.14;100.00
10718;BME280;13513;42.700;23.124;2023-08-30T02:10:43;92124.31;;;18.10;100.00
10718;BME280;13513;42.700;23.124;2023-08-30T02:13:11;92124.39;;;18.16;100.00
10718;BME280;13513;42.700;23.124;2023-08-30T02:15:41;92121.75;;;18.24;100.00
10718;BME280;13513;42.700;23.124;2023-08-30T02:18:09;92120.73;;;18.03;100.00
10718;BME280;13513;42.700;23.124;2023-08-30T02:20:37;92119.78;;;17.99;100.00
10718;BME280;13513;42.700;23.124;2023-08-30T02:23:04;92125.16;;;17.80;100.00
10718;BME280;13513;42.700;23.124;2023-08-30T02:25:32;92116.20;;;17.84;100.00
10718;BME280;13513;42.700;23.124;2023-08-30T02:27:59;92131.12;;;17.77;100.00
10718;BME280;13513;42.700;23.124;2023-08-30T02:30:26;92131.80;;;17.71;100.00
10718;BME280;13513;42.700;23.124;2023-08-30T02:32:54;92126.41;;;17.63;100.00
10718;BME280;13513;42.700;23.124;2023-08-30T02:35:21;92118.56;;;17.47;100.00
10718;BME280;13513;42.700;23.124;2023-08-30T02:37:49;92110.31;;;17.35;100.00
10718;BME280;13513;42.700;23.124;2023-08-30T02:40:16;92112.39;;;17.27;100.00
10718;BME280;13513;42.700;23.124;2023-08-30T02:42:44;92117.78;;;17.35;100.00
10718;BME280;13513;42.700;23.124;2023-08-30T02:45:11;92113.84;;;17.33;100.00
10718;BME280;13513;42.700;23.124;2023-08-30T02:47:38;92113.89;;;17.30;100.00
10718;BME280;13513;42.700;23.124;2023-08-30T02:50:06;92109.92;;;17.19;100.00
10718;BME280;13513;42.700;23.124;2023-08-30T02:52:34;92111.59;;;17.15;100.00
10718;BME280;13513;42.700;23.124;2023-08-30T02:55:01;92109.30;;;17.11;100.00
10718;BME280;13513;42.700;23.124;2023-08-30T02:57:29;92108.47;;;17.02;100.00
10718;BME280;13513;42.700;23.124;2023-08-30T02:59:57;92115.56;;;17.18;100.00
10718;BME280;13513;42.700;23.124;2023-08-30T03:02:24;92118.71;;;17.09;100.00
10718;BME280;13513;42.700;23.124;2023-08-30T03:04:51;92124.31;;;16.99;100.00
10718;BME280;13513;42.700;23.124;2023-08-30T03:07:19;92117.58;;;17.01;100.00
10718;BME280;13513;42.700;23.124;2023-08-30T03:09:51;92124.12;;;16.95;100.00
10718;BME280;13513;42.700;23.124;2023-08-30T03:12:15;92126.68;;;16.89;100.00
10718;BME280;13513;42.700;23.124;2023-08-30T03:14:42;92134.32;;;16.93;100.00
10718;BME280;13513;42.700;23.124;2023-08-30T03:17:10;92128.55;;;16.89;100.00
10718;BME280;13513;42.700;23.124;2023-08-30T03:19:37;92114.38;;;16.80;100.00
10718;BME280;13513;42.700;23.124;2023-08-30T03:22:05;92104.84;;;16.87;100.00
10718;BME280;13513;42.700;23.124;2023-08-30T03:24:32;92094.36;;;16.91;100.00
10718;BME280;13513;42.700;23.124;2023-08-30T03:26:59;92092.29;;;16.99;100.00
10718;BME280;13513;42.700;23.124;2023-08-30T03:29:28;92094.06;;;16.81;100.00
10718;BME280;13513;42.700;23.124;2023-08-30T03:31:56;92099.63;;;16.82;100.00
10718;BME280;13513;42.700;23.124;2023-08-30T03:34:23;92096.66;;;16.95;100.00
10718;BME280;13513;42.700;23.124;2023-08-30T03:36:51;92090.52;;;16.94;100.00
10718;BME280;13513;42.700;23.124;2023-08-30T03:39:21;92090.59;;;16.92;100.00
10718;BME280;13513;42.700;23.124;2023-08-30T03:41:50;92092.06;;;16.87;100.00
10718;BME280;13513;42.700;23.124;2023-08-30T03:44:17;92085.39;;;16.87;100.00
10718;BME280;13513;42.700;23.124;2023-08-30T03:46:45;92084.05;;;16.87;100.00
10718;BME280;13513;42.700;23.124;2023-08-30T03:49:12;92096.23;;;16.90;100.00
10718;BME280;13513;42.700;23.124;2023-08-30T03:51:40;92106.47;;;16.86;100.00
10718;BME280;13513;42.700;23.124;2023-08-30T03:54:07;92114.84;;;16.82;100.00
10718;BME280;13513;42.700;23.124;2023-08-30T03:56:36;92114.97;;;16.77;100.00
10718;BME280;13513;42.700;23.124;2023-08-30T03:59:04;92114.00;;;16.84;100.00
10718;BME280;13513;42.700;23.124;2023-08-30T04:01:31;92113.27;;;16.92;100.00
10718;BME280;13513;42.700;23.124;2023-08-30T04:03:59;92101.25;;;17.14;100.00
10718;BME280;13513;42.700;23.124;2023-08-30T04:06:26;92098.29;;;17.35;100.00
10718;BME280;13513;42.700;23.124;2023-08-30T04:08:54;92095.03;;;17.57;100.00
10718;BME280;13513;42.700;23.124;2023-08-30T04:11:21;92095.50;;;17.79;100.00
10718;BME280;13513;42.700;23.124;2023-08-30T04:13:48;92097.63;;;18.07;100.00
10718;BME280;13513;42.700;23.124;2023-08-30T04:16:16;92113.95;;;18.25;100.00
10718;BME280;13513;42.700;23.124;2023-08-30T04:18:43;92141.58;;;18.32;100.00
10718;BME280;13513;42.700;23.124;2023-08-30T04:21:11;92161.11;;;18.13;100.00
10718;BME280;13513;42.700;23.124;2023-08-30T04:23:38;92203.45;;;18.00;100.00
10718;BME280;13513;42.700;23.124;2023-08-30T04:26:05;92180.30;;;17.87;100.00
10718;BME280;13513;42.700;23.124;2023-08-30T04:28:33;92113.17;;;17.69;100.00
10718;BME280;13513;42.700;23.124;2023-08-30T04:31:00;92139.28;;;17.72;100.00
10718;BME280;13513;42.700;23.124;2023-08-30T04:33:28;92144.58;;;17.63;100.00
10718;BME280;13513;42.700;23.124;2023-08-30T04:35:56;92175.17;;;17.57;100.00
10718;BME280;13513;42.700;23.124;2023-08-30T04:38:23;92201.93;;;17.46;100.00
10718;BME280;13513;42.700;23.124;2023-08-30T04:40:56;92215.12;;;17.40;100.00
10718;BME280;13513;42.700;23.124;2023-08-30T04:43:19;92225.01;;;17.40;100.00
10718;BME280;13513;42.700;23.124;2023-08-30T04:45:48;92256.59;;;17.38;100.00
10718;BME280;13513;42.700;23.124;2023-08-30T04:48:15;92263.30;;;17.13;100.00
10718;BME280;13513;42.700;23.124;2023-08-30T04:50:42;92224.22;;;17.17;100.00
10718;BME280;13513;42.700;23.124;2023-08-30T04:53:10;92190.31;;;17.18;100.00
10718;BME280;13513;42.700;23.124;2023-08-30T04:55:37;92197.33;;;17.36;100.00
10718;BME280;13513;42.700;23.124;2023-08-30T04:58:05;92195.09;;;17.18;100.00
10718;BME280;13513;42.700;23.124;2023-08-30T05:00:32;92194.06;;;17.17;100.00
10718;BME280;13513;42.700;23.124;2023-08-30T05:02:59;92192.78;;;17.03;100.00
10718;BME280;13513;42.700;23.124;2023-08-30T05:05:27;92184.66;;;16.97;100.00
10718;BME280;13513;42.700;23.124;2023-08-30T05:07:54;92184.77;;;17.03;100.00
10718;BME280;13513;42.700;23.124;2023-08-30T05:10:22;92188.44;;;16.96;100.00
10718;BME280;13513;42.700;23.124;2023-08-30T05:12:49;92188.83;;;16.90;100.00
10718;BME280;13513;42.700;23.124;2023-08-30T05:15:18;92190.06;;;16.95;100.00
10718;BME280;13513;42.700;23.124;2023-08-30T05:17:46;92189.28;;;17.16;100.00
10718;BME280;13513;42.700;23.124;2023-08-30T05:20:14;92178.34;;;17.59;100.00
10718;BME280;13513;42.700;23.124;2023-08-30T05:22:41;92177.45;;;18.11;100.00
10718;BME280;13513;42.700;23.124;2023-08-30T05:25:09;92170.95;;;18.62;100.00
10718;BME280;13513;42.700;23.124;2023-08-30T05:27:36;92180.09;;;18.95;100.00
10718;BME280;13513;42.700;23.124;2023-08-30T05:30:04;92178.86;;;19.35;100.00
10718;BME280;13513;42.700;23.124;2023-08-30T05:32:31;92165.62;;;19.71;100.00
10718;BME280;13513;42.700;23.124;2023-08-30T05:34:59;92168.20;;;20.28;100.00
10718;BME280;13513;42.700;23.124;2023-08-30T05:37:26;92169.26;;;20.64;100.00
10718;BME280;13513;42.700;23.124;2023-08-30T05:39:54;92175.79;;;21.04;100.00
10718;BME280;13513;42.700;23.124;2023-08-30T05:42:21;92178.75;;;21.38;100.00
10718;BME280;13513;42.700;23.124;2023-08-30T05:44:49;92175.38;;;21.67;100.00
10718;BME280;13513;42.700;23.124;2023-08-30T05:47:16;92169.58;;;22.10;100.00
10718;BME280;13513;42.700;23.124;2023-08-30T05:49:45;92171.31;;;22.62;100.00
10718;BME280;13513;42.700;23.124;2023-08-30T05:52:14;92168.98;;;23.25;100.00
10718;BME280;13513;42.700;23.124;2023-08-30T05:54:42;92162.70;;;23.54;91.52
10718;BME280;13513;42.700;23.124;2023-08-30T05:57:10;92169.70;;;23.43;90.25
10718;BME280;13513;42.700;23.124;2023-08-30T05:59:38;92168.60;;;23.44;91.71
10718;BME280;13513;42.700;23.124;2023-08-30T06:02:06;92174.50;;;23.56;93.50
10718;BME280;13513;42.700;23.124;2023-08-30T06:04:33;92174.91;;;23.64;96.21
10718;BME280;13513;42.700;23.124;2023-08-30T06:07:01;92175.99;;;23.75;95.74
10718;BME280;13513;42.700;23.124;2023-08-30T06:09:29;92172.74;;;23.75;94.44
10718;BME280;13513;42.700;23.124;2023-08-30T06:11:57;92175.89;;;23.99;92.38
10718;BME280;13513;42.700;23.124;2023-08-30T06:14:24;92176.88;;;23.79;91.39
10718;BME280;13513;42.700;23.124;2023-08-30T06:16:52;92183.75;;;23.76;90.62
10718;BME280;13513;42.700;23.124;2023-08-30T06:19:19;92181.59;;;23.82;91.79
10718;BME280;13513;42.700;23.124;2023-08-30T06:21:47;92185.30;;;23.83;91.25
10718;BME280;13513;42.700;23.124;2023-08-30T06:24:14;92177.17;;;24.11;95.29
10718;BME280;13513;42.700;23.124;2023-08-30T06:26:41;92181.11;;;24.29;91.92
10718;BME280;13513;42.700;23.124;2023-08-30T06:29:09;92183.20;;;24.20;89.08
10718;BME280;13513;42.700;23.124;2023-08-30T06:31:36;92180.09;;;23.90;87.94
10718;BME280;13513;42.700;23.124;2023-08-30T06:34:05;92178.22;;;23.51;91.00
10718;BME280;13513;42.700;23.124;2023-08-30T06:36:33;92179.09;;;23.55;94.88
10718;BME280;13513;42.700;23.124;2023-08-30T06:39:00;92185.16;;;23.64;97.95
10718;BME280;13513;42.700;23.124;2023-08-30T06:41:28;92192.52;;;23.73;94.58
10718;BME280;13513;42.700;23.124;2023-08-30T06:43:55;92189.08;;;23.88;88.79
10718;BME280;13513;42.700;23.124;2023-08-30T06:46:23;92179.99;;;24.45;90.52
10718;BME280;13513;42.700;23.124;2023-08-30T06:48:50;92185.73;;;25.40;77.68
10718;BME280;13513;42.700;23.124;2023-08-30T06:51:18;92191.09;;;26.03;68.65
10718;BME280;13513;42.700;23.124;2023-08-30T06:53:45;92189.53;;;26.02;75.58
10718;BME280;13513;42.700;23.124;2023-08-30T06:56:13;92195.93;;;25.75;77.01
10718;BME280;13513;42.700;23.124;2023-08-30T06:58:41;92191.22;;;25.63;80.29
10718;BME280;13513;42.700;23.124;2023-08-30T07:01:08;92194.48;;;25.72;82.11
10718;BME280;13513;42.700;23.124;2023-08-30T07:03:36;92194.48;;;25.62;80.40
10718;BME280;13513;42.700;23.124;2023-08-30T07:06:03;92188.79;;;26.05;80.62
10718;BME280;13513;42.700;23.124;2023-08-30T07:08:31;92182.23;;;26.71;83.38
10718;BME280;13513;42.700;23.124;2023-08-30T07:10:58;92178.81;;;27.52;76.24
10718;BME280;13513;42.700;23.124;2023-08-30T07:13:26;92182.13;;;28.50;71.22
10718;BME280;13513;42.700;23.124;2023-08-30T07:15:54;92186.47;;;29.56;63.44
10718;BME280;13513;42.700;23.124;2023-08-30T07:18:21;92198.80;;;30.56;58.07
10718;BME280;13513;42.700;23.124;2023-08-30T07:20:48;92193.40;;;30.77;52.73
10718;BME280;13513;42.700;23.124;2023-08-30T07:23:16;92188.91;;;30.82;54.13
10718;BME280;13513;42.700;23.124;2023-08-30T07:25:43;92196.16;;;31.36;53.51
10718;BME280;13513;42.700;23.124;2023-08-30T07:28:11;92194.19;;;31.23;51.83
10718;BME280;13513;42.700;23.124;2023-08-30T07:30:38;92191.08;;;30.79;52.59
10718;BME280;13513;42.700;23.124;2023-08-30T07:33:06;92200.12;;;30.42;54.17
10718;BME280;13513;42.700;23.124;2023-08-30T07:35:33;92202.27;;;30.49;51.27
10718;BME280;13513;42.700;23.124;2023-08-30T07:38:01;92193.63;;;31.34;50.72
10718;BME280;13513;42.700;23.124;2023-08-30T07:40:28;92195.73;;;31.62;48.86
10718;BME280;13513;42.700;23.124;2023-08-30T07:42:57;92196.09;;;32.42;49.28
10718;BME280;13513;42.700;23.124;2023-08-30T07:45:24;92193.52;;;33.38;43.92
10718;BME280;13513;42.700;23.124;2023-08-30T07:47:52;92194.80;;;34.07;35.90
10718;BME280;13513;42.700;23.124;2023-08-30T07:50:19;92205.17;;;34.71;34.58
10718;BME280;13513;42.700;23.124;2023-08-30T07:52:46;92201.13;;;35.47;32.71
10718;BME280;13513;42.700;23.124;2023-08-30T07:55:14;92201.50;;;35.84;28.89
10718;BME280;13513;42.700;23.124;2023-08-30T07:57:41;92205.78;;;35.01;33.21
10718;BME280;13513;42.700;23.124;2023-08-30T08:00:10;92203.09;;;34.82;33.23
10718;BME280;13513;42.700;23.124;2023-08-30T08:02:37;92204.78;;;35.64;33.93
10718;BME280;13513;42.700;23.124;2023-08-30T08:05:05;92208.64;;;36.43;31.23
10718;BME280;13513;42.700;23.124;2023-08-30T08:07:32;92209.23;;;37.18;30.12
10718;BME280;13513;42.700;23.124;2023-08-30T08:10:00;92210.22;;;37.51;27.15
10718;BME280;13513;42.700;23.124;2023-08-30T08:12:27;92204.16;;;37.88;27.92
10718;BME280;13513;42.700;23.124;2023-08-30T08:14:55;92207.56;;;38.32;27.48
10718;BME280;13513;42.700;23.124;2023-08-30T08:17:22;92208.76;;;38.80;25.94
10718;BME280;13513;42.700;23.124;2023-08-30T08:19:49;92219.66;;;39.12;25.87
10718;BME280;13513;42.700;23.124;2023-08-30T08:22:17;92217.46;;;39.20;25.02
10718;BME280;13513;42.700;23.124;2023-08-30T08:24:44;92224.03;;;39.18;27.01
10718;BME280;13513;42.700;23.124;2023-08-30T08:27:12;92219.44;;;39.19;26.57
10718;BME280;13513;42.700;23.124;2023-08-30T08:29:40;92222.69;;;39.43;27.72
10718;BME280;13513;42.700;23.124;2023-08-30T08:32:08;92222.98;;;39.07;27.93
10718;BME280;13513;42.700;23.124;2023-08-30T08:34:35;92226.21;;;38.28;27.24
10718;BME280;13513;42.700;23.124;2023-08-30T08:37:03;92224.24;;;37.41;29.63
10718;BME280;13513;42.700;23.124;2023-08-30T08:39:31;92222.33;;;36.27;32.70
10718;BME280;13513;42.700;23.124;2023-08-30T08:41:59;92219.55;;;34.97;33.88
10718;BME280;13513;42.700;23.124;2023-08-30T08:44:28;92223.01;;;33.89;34.28
10718;BME280;13513;42.700;23.124;2023-08-30T08:46:56;92222.56;;;32.99;38.01
10718;BME280;13513;42.700;23.124;2023-08-30T08:49:25;92218.43;;;32.30;36.53
10718;BME280;13513;42.700;23.124;2023-08-30T08:51:57;92213.28;;;31.72;36.21
10718;BME280;13513;42.700;23.124;2023-08-30T08:54:25;92216.62;;;31.12;36.80
10718;BME280;13513;42.700;23.124;2023-08-30T08:56:53;92209.08;;;32.10;35.65
10718;BME280;13513;42.700;23.124;2023-08-30T08:59:22;92204.33;;;33.96;32.30
10718;BME280;13513;42.700;23.124;2023-08-30T09:01:50;92201.36;;;34.50;31.96
10718;BME280;13513;42.700;23.124;2023-08-30T09:04:19;92202.04;;;35.29;30.18
10718;BME280;13513;42.700;23.124;2023-08-30T09:06:46;92203.17;;;36.20;28.69
10718;BME280;13513;42.700;23.124;2023-08-30T09:09:15;92203.17;;;36.20;28.69
10718;BME280;13513;42.700;23.124;2023-08-30T09:11:43;92204.44;;;37.54;27.05
10718;BME280;13513;42.700;23.124;2023-08-30T09:14:10;92206.13;;;39.47;26.90
10718;BME280;13513;42.700;23.124;2023-08-30T09:16:37;92207.98;;;40.99;23.28
10718;BME280;13513;42.700;23.124;2023-08-30T09:19:05;92200.63;;;42.51;21.95
10718;BME280;13513;42.700;23.124;2023-08-30T09:21:33;92208.66;;;43.95;20.44
10718;BME280;13513;42.700;23.124;2023-08-30T09:24:02;92198.25;;;44.00;20.12
10718;BME280;13513;42.700;23.124;2023-08-30T09:26:31;92201.77;;;44.05;20.49
10718;BME280;13513;42.700;23.124;2023-08-30T09:29:06;92192.33;;;43.47;20.81
10718;BME280;13513;42.700;23.124;2023-08-30T09:31:38;92196.97;;;43.78;20.90
10718;BME280;13513;42.700;23.124;2023-08-30T09:34:07;92193.83;;;42.52;22.80
10718;BME280;13513;42.700;23.124;2023-08-30T09:36:38;92198.62;;;41.62;23.00
10718;BME280;13513;42.700;23.124;2023-08-30T09:39:10;92186.65;;;40.83;21.50
10718;BME280;13513;42.700;23.124;2023-08-30T09:41:42;92193.48;;;40.52;22.98
10718;BME280;13513;42.700;23.124;2023-08-30T09:44:15;92188.30;;;40.80;24.23
10718;BME280;13513;42.700;23.124;2023-08-30T09:46:55;92188.06;;;40.66;22.87
10718;BME280;13513;42.700;23.124;2023-08-30T09:49:24;92181.79;;;38.84;26.38
10718;BME280;13513;42.700;23.124;2023-08-30T09:51:53;92183.57;;;37.37;27.98
10718;BME280;13513;42.700;23.124;2023-08-30T09:54:22;92187.70;;;35.76;27.21
10718;BME280;13513;42.700;23.124;2023-08-30T09:56:50;92182.48;;;34.67;31.12
10718;BME280;13513;42.700;23.124;2023-08-30T09:59:22;92176.37;;;33.93;30.77
10718;BME280;13513;42.700;23.124;2023-08-30T10:01:50;92173.98;;;33.06;31.32
10718;BME280;13513;42.700;23.124;2023-08-30T10:04:22;92170.15;;;32.64;35.36
10718;BME280;13513;42.700;23.124;2023-08-30T10:06:51;92173.98;;;32.02;36.73
10718;BME280;13513;42.700;23.124;2023-08-30T10:09:19;92173.98;;;32.02;36.73
10718;BME280;13513;42.700;23.124;2023-08-30T10:11:49;92177.62;;;31.46;35.74
10718;BME280;13513;42.700;23.124;2023-08-30T10:14:18;92173.92;;;31.03;35.49
10718;BME280;13513;42.700;23.124;2023-08-30T10:16:47;92169.62;;;30.91;36.50
10718;BME280;13513;42.700;23.124;2023-08-30T10:19:17;92174.90;;;30.76;35.21
10718;BME280;13513;42.700;23.124;2023-08-30T10:21:47;92172.05;;;30.31;37.79
10718;BME280;13513;42.700;23.124;2023-08-30T10:24:17;92168.13;;;30.18;36.75
10718;BME280;13513;42.700;23.124;2023-08-30T10:26:46;92163.09;;;29.78;37.27
10718;BME280;13513;42.700;23.124;2023-08-30T10:29:16;92160.50;;;29.38;38.26
10718;BME280;13513;42.700;23.124;2023-08-30T10:31:44;92155.22;;;29.63;41.38
10718;BME280;13513;42.700;23.124;2023-08-30T10:34:16;92156.09;;;29.84;40.53
10718;BME280;13513;42.700;23.124;2023-08-30T10:36:45;92155.14;;;29.86;41.95
10718;BME280;13513;42.700;23.124;2023-08-30T10:39:15;92159.00;;;29.85;37.66
10718;BME280;13513;42.700;23.124;2023-08-30T10:41:56;92156.16;;;29.27;38.07
10718;BME280;13513;42.700;23.124;2023-08-30T10:44:24;92151.36;;;28.59;39.47
10718;BME280;13513;42.700;23.124;2023-08-30T10:46:55;92148.63;;;28.59;38.78
10718;BME280;13513;42.700;23.124;2023-08-30T10:49:22;92145.39;;;28.43;39.92
10718;BME280;13513;42.700;23.124;2023-08-30T10:51:57;92139.31;;;28.60;40.51
10718;BME280;13513;42.700;23.124;2023-08-30T10:54:25;92143.83;;;28.66;39.94
10718;BME280;13513;42.700;23.124;2023-08-30T10:56:58;92146.28;;;28.58;37.58
10718;BME280;13513;42.700;23.124;2023-08-30T10:59:28;92144.10;;;28.34;39.46
10718;BME280;13513;42.700;23.124;2023-08-30T11:02:00;92148.11;;;28.27;38.77
10718;BME280;13513;42.700;23.124;2023-08-30T11:04:27;92145.43;;;28.14;38.29
10718;BME280;13513;42.700;23.124;2023-08-30T11:06:55;92146.58;;;27.93;39.45
10718;BME280;13513;42.700;23.124;2023-08-30T11:09:24;92143.33;;;28.17;43.58
10718;BME280;13513;42.700;23.124;2023-08-30T11:11:52;92130.91;;;28.36;41.39
10718;BME280;13513;42.700;23.124;2023-08-30T11:14:20;92131.47;;;28.75;39.05
10718;BME280;13513;42.700;23.124;2023-08-30T11:16:47;92133.11;;;29.10;38.41
10718;BME280;13513;42.700;23.124;2023-08-30T11:19:15;92143.73;;;29.33;36.48
10718;BME280;13513;42.700;23.124;2023-08-30T11:21:44;92142.66;;;28.90;36.39
10718;BME280;13513;42.700;23.124;2023-08-30T11:24:12;92136.77;;;29.05;36.56
10718;BME280;13513;42.700;23.124;2023-08-30T11:26:40;92134.07;;;29.42;40.30
10718;BME280;13513;42.700;23.124;2023-08-30T11:29:08;92135.21;;;29.04;36.72
10718;BME280;13513;42.700;23.124;2023-08-30T11:31:36;92128.42;;;29.07;36.00
10718;BME280;13513;42.700;23.124;2023-08-30T11:34:03;92130.81;;;29.12;35.86
10718;BME280;13513;42.700;23.124;2023-08-30T11:36:32;92118.69;;;29.03;38.45
10718;BME280;13513;42.700;23.124;2023-08-30T11:39:01;92122.03;;;29.09;38.66
10718;BME280;13513;42.700;23.124;2023-08-30T11:41:28;92114.48;;;29.12;35.29
10718;BME280;13513;42.700;23.124;2023-08-30T11:43:58;92118.91;;;28.57;34.84
10718;BME280;13513;42.700;23.124;2023-08-30T11:46:26;92110.00;;;28.23;38.03
10718;BME280;13513;42.700;23.124;2023-08-30T11:48:54;92100.13;;;28.25;39.85
10718;BME280;13513;42.700;23.124;2023-08-30T11:51:22;92100.25;;;28.59;37.53
10718;BME280;13513;42.700;23.124;2023-08-30T11:53:49;92089.69;;;28.74;36.10
10718;BME280;13513;42.700;23.124;2023-08-30T11:56:18;92098.68;;;29.08;38.57
10718;BME280;13513;42.700;23.124;2023-08-30T11:58:46;92107.83;;;29.44;36.29
10718;BME280;13513;42.700;23.124;2023-08-30T12:01:13;92108.30;;;29.19;34.29
10718;BME280;13513;42.700;23.124;2023-08-30T12:03:41;92097.31;;;28.81;34.87
10718;BME280;13513;42.700;23.124;2023-08-30T12:06:11;92093.59;;;28.76;32.75
10718;BME280;13513;42.700;23.124;2023-08-30T12:08:39;92092.34;;;28.90;34.99
10718;BME280;13513;42.700;23.124;2023-08-30T12:11:22;92094.36;;;29.34;35.84
10718;BME280;13513;42.700;23.124;2023-08-30T12:13:46;92085.95;;;29.23;32.05
10718;BME280;13513;42.700;23.124;2023-08-30T12:16:17;92099.16;;;29.21;29.34
10718;BME280;13513;42.700;23.124;2023-08-30T12:18:46;92095.30;;;29.29;31.71
10718;BME280;13513;42.700;23.124;2023-08-30T12:21:14;92093.59;;;29.34;32.56
10718;BME280;13513;42.700;23.124;2023-08-30T12:23:42;92106.27;;;29.39;31.20
10718;BME280;13513;42.700;23.124;2023-08-30T12:26:10;92093.47;;;29.13;30.25
10718;BME280;13513;42.700;23.124;2023-08-30T12:28:39;92088.39;;;29.45;31.71
10718;BME280;13513;42.700;23.124;2023-08-30T12:31:07;92080.35;;;29.70;31.14
10718;BME280;13513;42.700;23.124;2023-08-30T12:33:35;92087.02;;;29.86;30.44
10718;BME280;13513;42.700;23.124;2023-08-30T12:36:03;92082.15;;;29.82;31.32
10718;BME280;13513;42.700;23.124;2023-08-30T12:38:31;92080.84;;;30.11;32.34
10718;BME280;13513;42.700;23.124;2023-08-30T12:40:58;92082.29;;;30.42;31.43
10718;BME280;13513;42.700;23.124;2023-08-30T12:43:26;92079.56;;;30.42;30.49
10718;BME280;13513;42.700;23.124;2023-08-30T12:45:53;92073.14;;;30.48;30.55
10718;BME280;13513;42.700;23.124;2023-08-30T12:48:22;92082.47;;;30.54;29.82
10718;BME280;13513;42.700;23.124;2023-08-30T12:50:49;92077.39;;;30.24;29.82
10718;BME280;13513;42.700;23.124;2023-08-30T12:53:17;92071.49;;;30.12;31.05
10718;BME280;13513;42.700;23.124;2023-08-30T12:55:44;92069.17;;;30.14;30.90